Le Center, Minnesota
Current Conditions -  °F | °C
As of 5:15 PM on Saturday 25 Oct 2014 (Local Time) from KMKT Reporting Station
Clear Clear  
Wind Chill: 63°   Ceiling: Unl
Heat Index: 63°   Visibility: 10mi
Dew Point: 28°   Wind: 14mph
Humidity: 27%   Direction: 300°WNW
Pressure: 30.07"   Gusts: NA
Location:  44.39°N, 93.73°W
Report Text: KMKT 252215Z AUTO 30012KT 10SM CLR 17/M02 A3007 RMK AO1
Loading
Personal Weather Stations






























Interactive Weather Map
Tropical Storm Tracking
New forecast layout! Learn more

10-Day Weather Forecast

Advertisements
Track Severe Weather on mobile